createdAt,value
2018-09-08T00:01:00.723Z,45.76
2018-09-08T00:06:04.570Z,45.93
2018-09-08T00:11:08.388Z,46.05
2018-09-08T00:16:17.330Z,46.27
2018-09-08T00:21:27.040Z,46.20
2018-09-08T00:26:33.870Z,45.92
2018-09-08T00:31:37.693Z,45.87
2018-09-08T00:36:41.424Z,45.70
2018-09-08T00:41:45.333Z,46.11
2018-09-08T00:46:49.059Z,45.94
2018-09-08T00:51:52.874Z,46.22
2018-09-08T00:56:57.754Z,46.25
2018-09-08T01:02:01.528Z,45.98
2018-09-08T01:07:05.262Z,45.70
2018-09-08T01:12:09.081Z,45.83
2018-09-08T01:17:12.939Z,45.62
2018-09-08T01:22:17.063Z,45.53
2018-09-08T01:27:20.864Z,45.73
2018-09-08T01:32:24.681Z,45.72
2018-09-08T01:37:29.279Z,45.91
2018-09-08T01:42:33.050Z,46.08
2018-09-08T01:47:36.877Z,45.94
2018-09-08T01:52:40.590Z,45.88
2018-09-08T01:57:44.373Z,45.47
2018-09-08T02:02:48.315Z,45.42
2018-09-08T02:07:52.184Z,45.54
2018-09-08T02:12:55.903Z,46.01
2018-09-08T02:18:02.601Z,46.18
2018-09-08T02:23:06.498Z,46.08
2018-09-08T02:28:10.331Z,46.30
2018-09-08T02:33:14.091Z,46.19
2018-09-08T02:38:17.877Z,46.78
2018-09-08T02:43:21.603Z,46.70
2018-09-08T02:48:25.354Z,47.01
2018-09-08T02:53:27.979Z,47.07
2018-09-08T02:58:30.527Z,46.66
2018-09-08T03:03:32.984Z,46.89
2018-09-08T03:08:35.508Z,47.22
2018-09-08T03:13:38.077Z,47.15
2018-09-08T03:18:40.626Z,47.35
2018-09-08T03:23:43.097Z,47.20
2018-09-08T03:28:45.723Z,47.26
2018-09-08T03:33:48.228Z,47.60
2018-09-08T03:38:50.838Z,47.59
2018-09-08T03:43:53.322Z,47.69
2018-09-08T03:48:55.847Z,47.61
2018-09-08T03:53:58.390Z,48.13
2018-09-08T03:59:01.164Z,47.79
2018-09-08T04:04:04.926Z,47.84
2018-09-08T04:09:10.965Z,48.19
2018-09-08T04:14:15.922Z,48.25
2018-09-08T04:19:19.763Z,48.04
2018-09-08T04:24:23.486Z,48.54
2018-09-08T04:29:27.379Z,48.19
2018-09-08T04:34:31.174Z,48.35
2018-09-08T04:39:34.939Z,48.55
2018-09-08T04:44:38.599Z,48.47
2018-09-08T04:49:42.363Z,48.90
2018-09-08T04:54:46.143Z,48.99
2018-09-08T04:59:50.078Z,48.87
2018-09-08T05:04:53.893Z,49.21
2018-09-08T05:09:57.743Z,49.31
2018-09-08T05:15:06.387Z,49.50
2018-09-08T05:20:10.263Z,49.44
2018-09-08T05:25:14.105Z,49.26
2018-09-08T05:30:17.887Z,49.43
2018-09-08T05:35:21.745Z,49.34
2018-09-08T05:40:25.525Z,49.57
2018-09-08T05:45:29.332Z,49.13
2018-09-08T05:50:33.118Z,49.39
2018-09-08T05:55:37.090Z,49.15
2018-09-08T06:00:40.924Z,49.23
2018-09-08T06:05:45.273Z,49.17
2018-09-08T06:10:49.040Z,48.80
2018-09-08T06:15:52.862Z,48.83
2018-09-08T06:20:56.606Z,48.75
2018-09-08T06:26:00.322Z,48.35
2018-09-08T06:31:03.960Z,48.25
2018-09-08T06:36:08.316Z,48.13
2018-09-08T06:41:13.108Z,48.27
2018-09-08T06:46:17.046Z,48.29
2018-09-08T06:51:21.182Z,47.62
2018-09-08T06:56:25.316Z,48.25
2018-09-08T07:01:29.027Z,41.47
2018-09-08T07:06:32.888Z,42.51
2018-09-08T07:11:37.051Z,42.78
2018-09-08T07:16:40.735Z,42.26
2018-09-08T07:21:44.588Z,48.36
2018-09-08T07:26:48.283Z,44.09
2018-09-08T07:31:52.095Z,49.67
2018-09-08T07:36:55.801Z,47.64
2018-09-08T07:41:59.570Z,46.14
2018-09-08T07:47:03.434Z,47.75
2018-09-08T07:52:07.187Z,45.85
2018-09-08T07:57:10.862Z,44.21
2018-09-08T08:02:14.601Z,44.37
2018-09-08T08:07:18.366Z,43.84
2018-09-08T08:12:22.171Z,43.72
2018-09-08T08:17:25.871Z,44.08
2018-09-08T08:22:29.602Z,41.99
2018-09-08T08:27:33.391Z,40.06
2018-09-08T08:32:37.097Z,40.74
2018-09-08T08:37:40.803Z,40.99
2018-09-08T08:42:44.432Z,40.02
2018-09-08T08:47:48.089Z,40.42
2018-09-08T08:54:48.503Z,37.30
2018-09-08T08:59:52.116Z,37.56
2018-09-08T09:04:56.116Z,37.24
2018-09-08T09:09:59.710Z,37.08
2018-09-08T09:15:05.762Z,36.72
2018-09-08T09:20:20.256Z,37.76
2018-09-08T09:25:23.898Z,38.12
2018-09-08T09:30:27.565Z,38.28
2018-09-08T09:35:31.284Z,38.38
2018-09-08T09:40:35.056Z,37.35
2018-09-08T09:45:38.701Z,37.57
2018-09-08T09:50:42.382Z,36.40
2018-09-08T09:55:46.058Z,35.94
2018-09-08T10:01:54.338Z,35.69
2018-09-08T10:06:58.119Z,34.52
2018-09-08T10:12:01.939Z,35.44
2018-09-08T10:17:05.642Z,34.91
2018-09-08T10:22:09.307Z,34.86
2018-09-08T10:27:13.012Z,36.55
2018-09-08T10:32:17.203Z,36.42
2018-09-08T10:37:20.476Z,35.09
2018-09-08T10:42:24.166Z,34.37
2018-09-08T10:47:27.901Z,34.36
2018-09-08T10:52:39.466Z,34.58
2018-09-08T10:57:43.143Z,35.21
2018-09-08T11:02:47.013Z,35.34
2018-09-08T11:07:50.491Z,33.91
2018-09-08T11:12:54.187Z,32.87
2018-09-08T11:17:57.817Z,32.23
2018-09-08T11:23:01.410Z,31.97
2018-09-08T11:28:05.086Z,33.45
2018-09-08T11:33:08.795Z,33.59
2018-09-08T11:38:12.558Z,32.45
2018-09-08T11:43:16.235Z,31.93
2018-09-08T11:48:20.727Z,32.25
2018-09-08T11:53:24.658Z,32.39
2018-09-08T11:58:28.331Z,32.29
2018-09-08T12:03:32.044Z,31.61
2018-09-08T12:08:35.747Z,31.09
2018-09-08T12:13:39.386Z,30.43
2018-09-08T12:18:43.031Z,30.53
2018-09-08T12:23:46.646Z,29.10
2018-09-08T12:28:50.520Z,28.93
2018-09-08T12:33:54.139Z,30.89
2018-09-08T12:38:57.986Z,30.00
2018-09-08T12:44:01.620Z,29.85
2018-09-08T12:49:05.336Z,30.11
2018-09-08T12:54:09.010Z,28.49
2018-09-08T12:59:12.823Z,29.87
2018-09-08T13:04:16.348Z,27.67
2018-09-08T13:09:20.052Z,27.76
2018-09-08T13:14:23.756Z,26.56
2018-09-08T13:19:27.401Z,27.04
2018-09-08T13:24:31.236Z,27.07
2018-09-08T13:29:35.044Z,26.48
2018-09-08T13:34:38.798Z,26.90
2018-09-08T13:39:43.687Z,25.43
2018-09-08T13:44:47.355Z,25.77
2018-09-08T13:49:51.064Z,27.18
2018-09-08T13:54:54.728Z,27.06
2018-09-08T13:59:59.668Z,27.58
2018-09-08T14:05:05.072Z,25.90
2018-09-08T14:10:09.367Z,27.58
2018-09-08T14:15:13.150Z,27.53
2018-09-08T14:20:16.821Z,27.46
2018-09-08T14:25:20.469Z,27.12
2018-09-08T14:30:24.099Z,27.46
2018-09-08T14:35:28.194Z,27.41
2018-09-08T14:40:31.888Z,26.76
2018-09-08T14:45:35.552Z,26.79
2018-09-08T14:50:39.418Z,28.21
2018-09-08T14:55:43.147Z,27.78
2018-09-08T15:00:46.789Z,27.16
2018-09-08T15:05:50.419Z,28.71
2018-09-08T15:10:57.992Z,28.48
2018-09-08T15:16:01.659Z,28.91
2018-09-08T15:21:06.302Z,28.90
2018-09-08T15:26:10.049Z,28.39
2018-09-08T15:31:13.745Z,27.86
2018-09-08T15:36:17.655Z,27.08
2018-09-08T15:41:21.467Z,27.01
2018-09-08T15:47:30.064Z,26.56
2018-09-08T15:52:33.860Z,27.46
2018-09-08T15:57:37.691Z,26.45
2018-09-08T16:02:42.001Z,26.74
2018-09-08T16:07:46.046Z,25.88
2018-09-08T16:12:49.836Z,26.67
2018-09-08T16:17:53.646Z,27.56
2018-09-08T16:22:57.645Z,27.54
2018-09-08T16:28:01.903Z,27.56
2018-09-08T16:33:06.151Z,27.73
2018-09-08T16:38:10.134Z,27.63
2018-09-08T16:43:13.889Z,29.04
2018-09-08T16:48:17.745Z,28.54
2018-09-08T16:53:21.466Z,30.34
2018-09-08T16:58:25.327Z,30.30
2018-09-08T17:03:29.061Z,29.33
2018-09-08T17:08:32.843Z,30.91
2018-09-08T17:13:36.719Z,29.78
2018-09-08T17:18:41.117Z,29.50
2018-09-08T17:23:44.962Z,30.50
2018-09-08T17:28:48.667Z,30.59
2018-09-08T17:33:53.099Z,30.73
2018-09-08T17:38:57.214Z,31.80
2018-09-08T17:44:01.063Z,31.62
2018-09-08T17:49:04.926Z,32.15
2018-09-08T17:54:08.677Z,32.59
2018-09-08T17:59:12.376Z,33.03
2018-09-08T18:04:16.041Z,33.54
2018-09-08T18:09:19.680Z,33.37
2018-09-08T18:14:23.416Z,33.27
2018-09-08T18:19:27.176Z,33.12
2018-09-08T18:24:30.920Z,33.40
2018-09-08T18:29:34.658Z,33.28
2018-09-08T18:34:38.502Z,34.20
2018-09-08T18:39:42.357Z,33.78
2018-09-08T18:44:46.390Z,33.76
2018-09-08T18:49:50.942Z,34.11
2018-09-08T18:54:55.401Z,34.01
2018-09-08T18:59:59.139Z,34.42
2018-09-08T19:05:08.325Z,34.78
2018-09-08T19:10:12.023Z,34.40
2018-09-08T19:15:16.545Z,34.95
2018-09-08T19:20:25.450Z,34.61
2018-09-08T19:25:29.327Z,34.55
2018-09-08T19:30:32.986Z,35.16
2018-09-08T19:35:40.360Z,35.00
2018-09-08T19:40:47.030Z,35.07
2018-09-08T19:45:50.742Z,35.07
2018-09-08T19:50:54.458Z,35.12
2018-09-08T19:55:58.899Z,35.45
2018-09-08T20:01:02.580Z,35.86
2018-09-08T20:06:06.443Z,35.54
2018-09-08T20:11:13.364Z,35.93
2018-09-08T20:16:17.027Z,35.93
2018-09-08T20:21:20.647Z,35.81
2018-09-08T20:26:24.411Z,36.30
2018-09-08T20:31:28.963Z,36.41
2018-09-08T20:36:32.733Z,36.32
2018-09-08T20:41:36.596Z,35.74
2018-09-08T20:46:40.271Z,36.07
2018-09-08T20:51:44.915Z,35.98
2018-09-08T20:56:48.600Z,36.50
2018-09-08T21:01:52.298Z,36.50
2018-09-08T21:06:56.015Z,35.94
2018-09-08T21:11:59.742Z,35.27
2018-09-08T21:17:04.567Z,35.04
2018-09-08T21:22:08.565Z,35.46
2018-09-08T21:27:12.214Z,35.45
2018-09-08T21:32:15.998Z,35.57
2018-09-08T21:37:20.047Z,35.51
2018-09-08T21:42:23.824Z,35.23
2018-09-08T21:47:27.498Z,35.65
2018-09-08T21:52:31.174Z,35.33
2018-09-08T21:57:34.994Z,35.39
2018-09-08T22:02:38.747Z,35.39
2018-09-08T22:07:42.585Z,35.46
2018-09-08T22:12:46.221Z,35.65
2018-09-08T22:17:50.072Z,35.79
2018-09-08T22:22:53.767Z,35.71
2018-09-08T22:27:57.519Z,35.21
2018-09-08T22:33:01.231Z,35.61
2018-09-08T22:38:04.986Z,35.40
2018-09-08T22:43:08.633Z,35.31
2018-09-08T22:48:12.309Z,35.30
2018-09-08T22:53:15.954Z,35.39
2018-09-08T22:58:19.638Z,35.62
2018-09-08T23:03:23.323Z,35.36
2018-09-08T23:08:26.947Z,35.46
2018-09-08T23:13:30.668Z,35.51
2018-09-08T23:18:34.429Z,35.71
2018-09-08T23:23:38.548Z,35.80
2018-09-08T23:28:42.206Z,35.93
2018-09-08T23:33:45.905Z,35.40
2018-09-08T23:38:49.541Z,35.17
2018-09-08T23:43:53.283Z,34.77
2018-09-08T23:48:56.997Z,35.47
2018-09-08T23:54:00.670Z,34.69
2018-09-08T23:59:04.375Z,35.11
